sensor_id;sensor_type;location;lat;lon;timestamp;temperature;humidity
36710;DHT22;22694;51.040;3.684;2022-12-08T00:01:27;13.40;82.90
36710;DHT22;22694;51.040;3.684;2022-12-08T00:03:54;13.40;82.70
36710;DHT22;22694;51.040;3.684;2022-12-08T00:06:29;13.40;82.60
36710;DHT22;22694;51.040;3.684;2022-12-08T00:11:51;13.40;82.50
36710;DHT22;22694;51.040;3.684;2022-12-08T00:14:17;13.30;82.50
36710;DHT22;22694;51.040;3.684;2022-12-08T00:16:43;13.30;82.60
36710;DHT22;22694;51.040;3.684;2022-12-08T00:19:09;13.20;83.00
36710;DHT22;22694;51.040;3.684;2022-12-08T00:21:35;13.20;82.40
36710;DHT22;22694;51.040;3.684;2022-12-08T00:24:00;13.20;82.30
36710;DHT22;22694;51.040;3.684;2022-12-08T00:26:26;13.10;82.40
36710;DHT22;22694;51.040;3.684;2022-12-08T00:28:51;13.10;82.40
36710;DHT22;22694;51.040;3.684;2022-12-08T00:31:17;13.00;82.30
36710;DHT22;22694;51.040;3.684;2022-12-08T00:33:43;13.00;82.50
36710;DHT22;22694;51.040;3.684;2022-12-08T00:36:12;12.90;82.60
36710;DHT22;22694;51.040;3.684;2022-12-08T00:38:38;12.90;82.90
36710;DHT22;22694;51.040;3.684;2022-12-08T00:41:24;12.90;83.30
36710;DHT22;22694;51.040;3.684;2022-12-08T00:44:11;12.90;83.10
36710;DHT22;22694;51.040;3.684;2022-12-08T00:46:37;13.00;82.90
36710;DHT22;22694;51.040;3.684;2022-12-08T00:49:04;13.00;83.00
36710;DHT22;22694;51.040;3.684;2022-12-08T00:51:30;13.00;83.00
36710;DHT22;22694;51.040;3.684;2022-12-08T00:53:56;13.10;83.10
36710;DHT22;22694;51.040;3.684;2022-12-08T00:56:22;13.00;82.90
36710;DHT22;22694;51.040;3.684;2022-12-08T00:58:48;13.00;82.90
36710;DHT22;22694;51.040;3.684;2022-12-08T01:01:13;13.00;82.90
36710;DHT22;22694;51.040;3.684;2022-12-08T01:03:40;13.00;82.90
36710;DHT22;22694;51.040;3.684;2022-12-08T01:06:06;12.90;82.90
36710;DHT22;22694;51.040;3.684;2022-12-08T01:08:33;12.90;82.80
36710;DHT22;22694;51.040;3.684;2022-12-08T01:11:07;12.80;82.70
36710;DHT22;22694;51.040;3.684;2022-12-08T01:13:33;12.80;82.80
36710;DHT22;22694;51.040;3.684;2022-12-08T01:15:59;12.80;83.50
36710;DHT22;22694;51.040;3.684;2022-12-08T01:18:26;12.70;82.90
36710;DHT22;22694;51.040;3.684;2022-12-08T01:20:52;12.70;82.90
36710;DHT22;22694;51.040;3.684;2022-12-08T01:23:18;12.60;83.50
36710;DHT22;22694;51.040;3.684;2022-12-08T01:25:43;12.70;83.80
36710;DHT22;22694;51.040;3.684;2022-12-08T01:28:09;12.70;83.60
36710;DHT22;22694;51.040;3.684;2022-12-08T01:30:38;12.70;83.50
36710;DHT22;22694;51.040;3.684;2022-12-08T01:33:04;12.80;83.30
36710;DHT22;22694;51.040;3.684;2022-12-08T01:35:30;12.80;83.40
36710;DHT22;22694;51.040;3.684;2022-12-08T01:37:56;12.90;83.90
36710;DHT22;22694;51.040;3.684;2022-12-08T01:40:21;12.90;83.50
36710;DHT22;22694;51.040;3.684;2022-12-08T01:42:48;12.80;83.30
36710;DHT22;22694;51.040;3.684;2022-12-08T01:45:30;12.80;83.20
36710;DHT22;22694;51.040;3.684;2022-12-08T01:48:03;12.80;83.10
36710;DHT22;22694;51.040;3.684;2022-12-08T01:50:31;12.70;82.90
36710;DHT22;22694;51.040;3.684;2022-12-08T01:53:19;12.70;82.90
36710;DHT22;22694;51.040;3.684;2022-12-08T01:55:50;12.70;82.80
36710;DHT22;22694;51.040;3.684;2022-12-08T01:58:24;12.60;82.80
36710;DHT22;22694;51.040;3.684;2022-12-08T02:00:51;12.60;83.10
36710;DHT22;22694;51.040;3.684;2022-12-08T02:03:34;12.60;82.90
36710;DHT22;22694;51.040;3.684;2022-12-08T02:06:03;12.50;83.10
36710;DHT22;22694;51.040;3.684;2022-12-08T02:08:29;12.40;83.50
36710;DHT22;22694;51.040;3.684;2022-12-08T02:10:55;12.40;83.70
36710;DHT22;22694;51.040;3.684;2022-12-08T02:13:22;12.50;83.50
36710;DHT22;22694;51.040;3.684;2022-12-08T02:40:38;12.40;82.80
36710;DHT22;22694;51.040;3.684;2022-12-08T02:43:31;12.40;82.90
36710;DHT22;22694;51.040;3.684;2022-12-08T02:45:58;12.30;82.90
36710;DHT22;22694;51.040;3.684;2022-12-08T02:48:26;12.30;83.10
36710;DHT22;22694;51.040;3.684;2022-12-08T02:50:52;12.20;83.70
36710;DHT22;22694;51.040;3.684;2022-12-08T02:53:18;12.20;83.70
36710;DHT22;22694;51.040;3.684;2022-12-08T02:55:59;12.20;83.60
36710;DHT22;22694;51.040;3.684;2022-12-08T02:58:54;12.30;83.40
36710;DHT22;22694;51.040;3.684;2022-12-08T03:04:16;12.40;83.30
36710;DHT22;22694;51.040;3.684;2022-12-08T03:07:09;12.40;83.20
36710;DHT22;22694;51.040;3.684;2022-12-08T03:09:57;12.40;83.40
36710;DHT22;22694;51.040;3.684;2022-12-08T03:12:41;12.40;83.70
36710;DHT22;22694;51.040;3.684;2022-12-08T03:15:11;12.40;83.70
36710;DHT22;22694;51.040;3.684;2022-12-08T03:17:41;12.40;83.50
36710;DHT22;22694;51.040;3.684;2022-12-08T03:20:11;12.40;83.40
36710;DHT22;22694;51.040;3.684;2022-12-08T03:22:40;12.40;83.10
36710;DHT22;22694;51.040;3.684;2022-12-08T03:25:09;12.40;82.90
36710;DHT22;22694;51.040;3.684;2022-12-08T03:27:37;12.30;82.90
36710;DHT22;22694;51.040;3.684;2022-12-08T03:30:03;12.20;83.00
36710;DHT22;22694;51.040;3.684;2022-12-08T03:35:14;12.20;83.70
36710;DHT22;22694;51.040;3.684;2022-12-08T03:37:41;12.30;83.70
36710;DHT22;22694;51.040;3.684;2022-12-08T03:40:10;12.30;83.40
36710;DHT22;22694;51.040;3.684;2022-12-08T03:42:36;12.30;83.40
36710;DHT22;22694;51.040;3.684;2022-12-08T03:45:01;12.40;83.50
36710;DHT22;22694;51.040;3.684;2022-12-08T03:47:28;12.40;83.50
36710;DHT22;22694;51.040;3.684;2022-12-08T03:49:54;12.40;83.40
36710;DHT22;22694;51.040;3.684;2022-12-08T03:52:19;12.40;83.40
36710;DHT22;22694;51.040;3.684;2022-12-08T03:54:45;12.30;83.30
36710;DHT22;22694;51.040;3.684;2022-12-08T03:57:10;12.30;83.30
36710;DHT22;22694;51.040;3.684;2022-12-08T03:59:36;12.30;83.20
36710;DHT22;22694;51.040;3.684;2022-12-08T04:02:02;12.20;83.10
36710;DHT22;22694;51.040;3.684;2022-12-08T04:04:27;12.20;83.90
36710;DHT22;22694;51.040;3.684;2022-12-08T04:06:53;12.20;83.20
36710;DHT22;22694;51.040;3.684;2022-12-08T04:09:18;12.10;83.20
36710;DHT22;22694;51.040;3.684;2022-12-08T04:11:44;12.10;83.50
36710;DHT22;22694;51.040;3.684;2022-12-08T04:14:10;12.00;83.80
36710;DHT22;22694;51.040;3.684;2022-12-08T04:16:35;12.10;84.10
36710;DHT22;22694;51.040;3.684;2022-12-08T04:19:01;12.10;84.40
36710;DHT22;22694;51.040;3.684;2022-12-08T04:21:27;12.20;83.70
36710;DHT22;22694;51.040;3.684;2022-12-08T04:23:52;12.20;83.60
36710;DHT22;22694;51.040;3.684;2022-12-08T04:26:18;12.30;83.70
36710;DHT22;22694;51.040;3.684;2022-12-08T04:28:43;12.30;83.60
36710;DHT22;22694;51.040;3.684;2022-12-08T04:31:09;12.30;83.60
36710;DHT22;22694;51.040;3.684;2022-12-08T04:33:35;12.30;83.50
36710;DHT22;22694;51.040;3.684;2022-12-08T04:36:02;12.20;83.50
36710;DHT22;22694;51.040;3.684;2022-12-08T04:38:28;12.20;83.40
36710;DHT22;22694;51.040;3.684;2022-12-08T04:40:54;12.20;83.30
36710;DHT22;22694;51.040;3.684;2022-12-08T04:43:20;12.10;83.30
36710;DHT22;22694;51.040;3.684;2022-12-08T04:45:46;12.10;83.30
36710;DHT22;22694;51.040;3.684;2022-12-08T04:48:11;12.00;83.20
36710;DHT22;22694;51.040;3.684;2022-12-08T04:50:42;12.00;83.40
36710;DHT22;22694;51.040;3.684;2022-12-08T04:53:08;12.00;83.70
36710;DHT22;22694;51.040;3.684;2022-12-08T04:55:40;12.00;84.10
36710;DHT22;22694;51.040;3.684;2022-12-08T04:58:06;12.00;84.10
36710;DHT22;22694;51.040;3.684;2022-12-08T05:00:32;12.00;83.90
36710;DHT22;22694;51.040;3.684;2022-12-08T05:02:58;12.10;83.80
36710;DHT22;22694;51.040;3.684;2022-12-08T05:05:23;12.20;83.80
36710;DHT22;22694;51.040;3.684;2022-12-08T05:07:49;12.20;83.70
36710;DHT22;22694;51.040;3.684;2022-12-08T05:10:15;12.20;83.50
36710;DHT22;22694;51.040;3.684;2022-12-08T05:12:40;12.20;83.40
36710;DHT22;22694;51.040;3.684;2022-12-08T05:15:06;12.20;83.30
36710;DHT22;22694;51.040;3.684;2022-12-08T05:17:32;12.20;83.30
36710;DHT22;22694;51.040;3.684;2022-12-08T05:19:58;12.10;83.40
36710;DHT22;22694;51.040;3.684;2022-12-08T05:22:23;12.10;83.40
36710;DHT22;22694;51.040;3.684;2022-12-08T05:24:49;12.10;83.30
36710;DHT22;22694;51.040;3.684;2022-12-08T05:27:15;12.00;83.20
36710;DHT22;22694;51.040;3.684;2022-12-08T05:29:40;12.00;83.30
36710;DHT22;22694;51.040;3.684;2022-12-08T05:32:06;12.00;83.30
36710;DHT22;22694;51.040;3.684;2022-12-08T05:34:32;11.90;83.90
36710;DHT22;22694;51.040;3.684;2022-12-08T05:36:57;11.90;84.20
36710;DHT22;22694;51.040;3.684;2022-12-08T05:39:23;11.90;84.10
36710;DHT22;22694;51.040;3.684;2022-12-08T05:41:49;12.00;83.90
36710;DHT22;22694;51.040;3.684;2022-12-08T05:44:14;12.00;83.70
36710;DHT22;22694;51.040;3.684;2022-12-08T05:46:40;12.10;83.70
36710;DHT22;22694;51.040;3.684;2022-12-08T05:49:06;12.10;83.60
36710;DHT22;22694;51.040;3.684;2022-12-08T05:51:31;12.20;83.70
36710;DHT22;22694;51.040;3.684;2022-12-08T05:53:57;12.20;83.70
36710;DHT22;22694;51.040;3.684;2022-12-08T05:56:23;12.10;83.60
36710;DHT22;22694;51.040;3.684;2022-12-08T05:58:49;12.10;83.60
36710;DHT22;22694;51.040;3.684;2022-12-08T06:01:22;12.10;83.50
36710;DHT22;22694;51.040;3.684;2022-12-08T06:03:48;12.00;83.60
36710;DHT22;22694;51.040;3.684;2022-12-08T06:06:14;12.00;83.50
36710;DHT22;22694;51.040;3.684;2022-12-08T06:08:40;12.00;83.50
36710;DHT22;22694;51.040;3.684;2022-12-08T06:11:05;11.90;83.50
36710;DHT22;22694;51.040;3.684;2022-12-08T06:13:31;11.90;83.70
36710;DHT22;22694;51.040;3.684;2022-12-08T06:16:03;11.90;84.40
36710;DHT22;22694;51.040;3.684;2022-12-08T06:18:29;11.90;84.40
36710;DHT22;22694;51.040;3.684;2022-12-08T06:21:05;12.00;84.20
36710;DHT22;22694;51.040;3.684;2022-12-08T06:23:31;12.00;84.00
36710;DHT22;22694;51.040;3.684;2022-12-08T06:26:04;12.10;83.90
36710;DHT22;22694;51.040;3.684;2022-12-08T06:28:31;12.20;83.90
36710;DHT22;22694;51.040;3.684;2022-12-08T06:30:57;12.10;83.70
36710;DHT22;22694;51.040;3.684;2022-12-08T06:33:24;12.20;83.70
36710;DHT22;22694;51.040;3.684;2022-12-08T06:35:51;12.10;83.60
36710;DHT22;22694;51.040;3.684;2022-12-08T06:38:17;12.10;83.50
36710;DHT22;22694;51.040;3.684;2022-12-08T06:40:42;12.10;83.50
36710;DHT22;22694;51.040;3.684;2022-12-08T06:43:08;12.00;83.30
36710;DHT22;22694;51.040;3.684;2022-12-08T06:45:34;12.00;83.40
36710;DHT22;22694;51.040;3.684;2022-12-08T06:48:01;12.00;83.50
36710;DHT22;22694;51.040;3.684;2022-12-08T06:50:27;11.90;83.30
36710;DHT22;22694;51.040;3.684;2022-12-08T06:52:53;11.90;83.40
36710;DHT22;22694;51.040;3.684;2022-12-08T06:55:18;11.90;83.90
36710;DHT22;22694;51.040;3.684;2022-12-08T06:57:44;11.80;84.30
36710;DHT22;22694;51.040;3.684;2022-12-08T07:00:10;11.80;84.30
36710;DHT22;22694;51.040;3.684;2022-12-08T07:02:36;12.10;91.90
36710;DHT22;22694;51.040;3.684;2022-12-08T07:05:02;12.60;92.50
36710;DHT22;22694;51.040;3.684;2022-12-08T07:07:27;12.90;91.00
36710;DHT22;22694;51.040;3.684;2022-12-08T07:09:53;13.00;87.20
36710;DHT22;22694;51.040;3.684;2022-12-08T07:12:18;12.90;84.00
36710;DHT22;22694;51.040;3.684;2022-12-08T07:14:44;12.80;83.70
36710;DHT22;22694;51.040;3.684;2022-12-08T07:17:10;12.70;83.50
36710;DHT22;22694;51.040;3.684;2022-12-08T07:19:35;12.60;83.30
36710;DHT22;22694;51.040;3.684;2022-12-08T07:22:01;12.50;83.00
36710;DHT22;22694;51.040;3.684;2022-12-08T07:24:26;12.50;82.90
36710;DHT22;22694;51.040;3.684;2022-12-08T07:26:52;12.60;87.50
36710;DHT22;22694;51.040;3.684;2022-12-08T07:29:18;12.70;87.00
36710;DHT22;22694;51.040;3.684;2022-12-08T07:31:43;12.80;89.60
36710;DHT22;22694;51.040;3.684;2022-12-08T07:34:11;13.10;90.00
36710;DHT22;22694;51.040;3.684;2022-12-08T07:36:37;13.20;87.90
36710;DHT22;22694;51.040;3.684;2022-12-08T07:39:03;13.10;84.80
36710;DHT22;22694;51.040;3.684;2022-12-08T07:41:28;13.10;83.60
36710;DHT22;22694;51.040;3.684;2022-12-08T07:43:55;13.00;82.90
36710;DHT22;22694;51.040;3.684;2022-12-08T07:46:23;12.90;82.30
36710;DHT22;22694;51.040;3.684;2022-12-08T07:48:50;12.80;81.80
36710;DHT22;22694;51.040;3.684;2022-12-08T07:51:16;12.70;81.90
36710;DHT22;22694;51.040;3.684;2022-12-08T07:53:44;12.60;81.80
36710;DHT22;22694;51.040;3.684;2022-12-08T07:56:11;12.60;81.90
36710;DHT22;22694;51.040;3.684;2022-12-08T07:58:38;12.60;81.90
36710;DHT22;22694;51.040;3.684;2022-12-08T08:01:04;12.60;82.00
36710;DHT22;22694;51.040;3.684;2022-12-08T08:03:29;12.50;81.80
36710;DHT22;22694;51.040;3.684;2022-12-08T08:06:02;12.50;81.90
36710;DHT22;22694;51.040;3.684;2022-12-08T08:08:27;12.40;81.80
36710;DHT22;22694;51.040;3.684;2022-12-08T08:10:53;12.40;81.90
36710;DHT22;22694;51.040;3.684;2022-12-08T08:13:18;12.40;81.70
36710;DHT22;22694;51.040;3.684;2022-12-08T08:15:44;12.30;81.60
36710;DHT22;22694;51.040;3.684;2022-12-08T08:18:10;12.30;81.50
36710;DHT22;22694;51.040;3.684;2022-12-08T08:20:35;12.30;81.30
36710;DHT22;22694;51.040;3.684;2022-12-08T08:23:01;12.30;81.20
36710;DHT22;22694;51.040;3.684;2022-12-08T08:25:26;12.20;81.20
36710;DHT22;22694;51.040;3.684;2022-12-08T08:27:53;12.20;81.20
36710;DHT22;22694;51.040;3.684;2022-12-08T08:30:19;12.20;81.30
36710;DHT22;22694;51.040;3.684;2022-12-08T08:32:44;12.20;81.40
36710;DHT22;22694;51.040;3.684;2022-12-08T08:35:10;12.20;81.30
36710;DHT22;22694;51.040;3.684;2022-12-08T08:37:36;12.20;81.30
36710;DHT22;22694;51.040;3.684;2022-12-08T08:40:01;12.20;81.10
36710;DHT22;22694;51.040;3.684;2022-12-08T08:42:27;12.20;81.20
36710;DHT22;22694;51.040;3.684;2022-12-08T08:44:53;12.20;81.30
36710;DHT22;22694;51.040;3.684;2022-12-08T08:47:18;12.20;81.20
36710;DHT22;22694;51.040;3.684;2022-12-08T08:49:45;12.10;81.40
36710;DHT22;22694;51.040;3.684;2022-12-08T08:52:10;12.10;81.50
36710;DHT22;22694;51.040;3.684;2022-12-08T08:54:36;12.10;81.60
36710;DHT22;22694;51.040;3.684;2022-12-08T08:57:02;12.10;81.60
36710;DHT22;22694;51.040;3.684;2022-12-08T08:59:28;12.10;81.50
36710;DHT22;22694;51.040;3.684;2022-12-08T09:01:54;12.10;81.70
36710;DHT22;22694;51.040;3.684;2022-12-08T09:04:21;12.10;81.80
36710;DHT22;22694;51.040;3.684;2022-12-08T09:06:47;12.10;82.50
36710;DHT22;22694;51.040;3.684;2022-12-08T09:09:14;12.10;83.30
36710;DHT22;22694;51.040;3.684;2022-12-08T09:11:41;12.20;84.20
36710;DHT22;22694;51.040;3.684;2022-12-08T09:14:09;12.30;85.30
36710;DHT22;22694;51.040;3.684;2022-12-08T09:16:35;12.30;86.00
36710;DHT22;22694;51.040;3.684;2022-12-08T09:19:00;12.30;86.40
36710;DHT22;22694;51.040;3.684;2022-12-08T09:21:26;12.40;86.70
36710;DHT22;22694;51.040;3.684;2022-12-08T09:23:54;12.40;87.00
36710;DHT22;22694;51.040;3.684;2022-12-08T09:26:20;12.50;87.70
36710;DHT22;22694;51.040;3.684;2022-12-08T09:28:50;12.50;87.20
36710;DHT22;22694;51.040;3.684;2022-12-08T09:31:17;12.60;87.30
36710;DHT22;22694;51.040;3.684;2022-12-08T09:33:43;12.60;87.40
36710;DHT22;22694;51.040;3.684;2022-12-08T09:36:09;12.90;91.30
36710;DHT22;22694;51.040;3.684;2022-12-08T09:38:36;13.20;89.40
36710;DHT22;22694;51.040;3.684;2022-12-08T09:41:09;13.40;89.60
36710;DHT22;22694;51.040;3.684;2022-12-08T09:44:08;13.60;86.40
36710;DHT22;22694;51.040;3.684;2022-12-08T09:46:39;13.40;82.70
36710;DHT22;22694;51.040;3.684;2022-12-08T09:49:12;13.10;79.60
36710;DHT22;22694;51.040;3.684;2022-12-08T09:51:39;12.80;78.70
36710;DHT22;22694;51.040;3.684;2022-12-08T09:54:24;12.70;79.10
36710;DHT22;22694;51.040;3.684;2022-12-08T09:56:54;12.50;79.50
36710;DHT22;22694;51.040;3.684;2022-12-08T09:59:23;13.00;93.70
36710;DHT22;22694;51.040;3.684;2022-12-08T10:01:50;13.80;92.90
36710;DHT22;22694;51.040;3.684;2022-12-08T10:06:51;14.50;87.70
36710;DHT22;22694;51.040;3.684;2022-12-08T10:09:41;14.70;88.10
36710;DHT22;22694;51.040;3.684;2022-12-08T10:12:25;14.80;86.10
36710;DHT22;22694;51.040;3.684;2022-12-08T10:17:55;14.70;84.80
36710;DHT22;22694;51.040;3.684;2022-12-08T10:20:24;14.60;84.60
36710;DHT22;22694;51.040;3.684;2022-12-08T10:23:01;14.60;85.20
36710;DHT22;22694;51.040;3.684;2022-12-08T10:25:35;14.50;84.50
36710;DHT22;22694;51.040;3.684;2022-12-08T10:28:02;14.40;84.30
36710;DHT22;22694;51.040;3.684;2022-12-08T10:30:29;14.40;84.30
36710;DHT22;22694;51.040;3.684;2022-12-08T10:32:56;14.30;84.10
36710;DHT22;22694;51.040;3.684;2022-12-08T10:35:22;14.30;84.10
36710;DHT22;22694;51.040;3.684;2022-12-08T10:37:58;14.30;86.90
36710;DHT22;22694;51.040;3.684;2022-12-08T10:40:27;14.70;89.60
36710;DHT22;22694;51.040;3.684;2022-12-08T10:42:56;14.70;86.20
36710;DHT22;22694;51.040;3.684;2022-12-08T10:45:37;14.60;83.40
36710;DHT22;22694;51.040;3.684;2022-12-08T10:48:05;14.40;82.00
36710;DHT22;22694;51.040;3.684;2022-12-08T10:53:26;14.10;80.20
36710;DHT22;22694;51.040;3.684;2022-12-08T11:01:16;13.80;81.20
36710;DHT22;22694;51.040;3.684;2022-12-08T11:03:51;13.70;79.10
36710;DHT22;22694;51.040;3.684;2022-12-08T11:08:52;13.50;78.20
36710;DHT22;22694;51.040;3.684;2022-12-08T11:11:19;13.50;78.50
36710;DHT22;22694;51.040;3.684;2022-12-08T11:13:48;13.40;78.60
36710;DHT22;22694;51.040;3.684;2022-12-08T11:16:15;13.40;79.00
36710;DHT22;22694;51.040;3.684;2022-12-08T11:18:45;13.40;79.70
36710;DHT22;22694;51.040;3.684;2022-12-08T11:21:15;13.30;80.20
36710;DHT22;22694;51.040;3.684;2022-12-08T11:23:45;13.30;80.70
36710;DHT22;22694;51.040;3.684;2022-12-08T11:26:30;13.30;81.10
36710;DHT22;22694;51.040;3.684;2022-12-08T11:28:57;13.30;81.10
36710;DHT22;22694;51.040;3.684;2022-12-08T11:31:37;13.20;81.00
36710;DHT22;22694;51.040;3.684;2022-12-08T11:34:07;13.20;80.50
36710;DHT22;22694;51.040;3.684;2022-12-08T11:36:36;13.20;82.30
36710;DHT22;22694;51.040;3.684;2022-12-08T11:39:03;13.10;80.70
36710;DHT22;22694;51.040;3.684;2022-12-08T11:41:36;13.20;81.90
36710;DHT22;22694;51.040;3.684;2022-12-08T11:47:21;13.60;90.20
36710;DHT22;22694;51.040;3.684;2022-12-08T11:49:38;13.90;87.90
36710;DHT22;22694;51.040;3.684;2022-12-08T11:52:23;14.00;86.30
36710;DHT22;22694;51.040;3.684;2022-12-08T11:57:22;14.00;85.00
36710;DHT22;22694;51.040;3.684;2022-12-08T11:59:51;14.00;84.80
36710;DHT22;22694;51.040;3.684;2022-12-08T12:02:26;14.00;85.40
36710;DHT22;22694;51.040;3.684;2022-12-08T12:05:14;14.10;85.50
36710;DHT22;22694;51.040;3.684;2022-12-08T12:16:09;14.40;88.50
36710;DHT22;22694;51.040;3.684;2022-12-08T12:21:31;15.10;83.90
36710;DHT22;22694;51.040;3.684;2022-12-08T12:24:04;15.00;81.60
36710;DHT22;22694;51.040;3.684;2022-12-08T12:26:34;14.80;80.80
36710;DHT22;22694;51.040;3.684;2022-12-08T12:29:16;14.50;79.20
36710;DHT22;22694;51.040;3.684;2022-12-08T12:31:47;14.20;78.00
36710;DHT22;22694;51.040;3.684;2022-12-08T12:34:21;14.00;77.70
36710;DHT22;22694;51.040;3.684;2022-12-08T12:36:57;13.80;77.60
36710;DHT22;22694;51.040;3.684;2022-12-08T12:39:30;13.70;77.80
36710;DHT22;22694;51.040;3.684;2022-12-08T12:41:59;13.60;78.20
36710;DHT22;22694;51.040;3.684;2022-12-08T12:46:59;13.40;78.80
36710;DHT22;22694;51.040;3.684;2022-12-08T12:54:44;13.20;79.40
36710;DHT22;22694;51.040;3.684;2022-12-08T12:59:45;13.00;79.60
36710;DHT22;22694;51.040;3.684;2022-12-08T13:02:29;13.00;79.80
36710;DHT22;22694;51.040;3.684;2022-12-08T13:07:57;12.90;80.00
36710;DHT22;22694;51.040;3.684;2022-12-08T13:10:36;12.90;80.10
36710;DHT22;22694;51.040;3.684;2022-12-08T13:13:17;12.80;80.20
36710;DHT22;22694;51.040;3.684;2022-12-08T13:16:03;12.70;77.20
36710;DHT22;22694;51.040;3.684;2022-12-08T13:18:39;12.90;90.40
36710;DHT22;22694;51.040;3.684;2022-12-08T13:26:23;14.40;85.00
36710;DHT22;22694;51.040;3.684;2022-12-08T13:29:14;14.40;83.50
36710;DHT22;22694;51.040;3.684;2022-12-08T13:31:57;14.30;82.30
36710;DHT22;22694;51.040;3.684;2022-12-08T13:39:43;13.70;77.60
36710;DHT22;22694;51.040;3.684;2022-12-08T13:44:46;13.50;77.70
36710;DHT22;22694;51.040;3.684;2022-12-08T13:47:21;13.40;77.70
36710;DHT22;22694;51.040;3.684;2022-12-08T13:49:53;13.40;77.80
36710;DHT22;22694;51.040;3.684;2022-12-08T13:52:33;13.30;78.50
36710;DHT22;22694;51.040;3.684;2022-12-08T13:55:02;13.30;78.50
36710;DHT22;22694;51.040;3.684;2022-12-08T13:57:34;13.20;78.50
36710;DHT22;22694;51.040;3.684;2022-12-08T14:00:05;13.20;78.50
36710;DHT22;22694;51.040;3.684;2022-12-08T14:02:41;13.20;78.60
36710;DHT22;22694;51.040;3.684;2022-12-08T14:05:08;13.10;78.60
36710;DHT22;22694;51.040;3.684;2022-12-08T14:07:35;13.10;78.60
36710;DHT22;22694;51.040;3.684;2022-12-08T14:10:05;13.10;78.70
36710;DHT22;22694;51.040;3.684;2022-12-08T14:12:32;13.00;78.80
36710;DHT22;22694;51.040;3.684;2022-12-08T14:15:00;13.00;78.90
36710;DHT22;22694;51.040;3.684;2022-12-08T14:17:27;13.00;79.00
36710;DHT22;22694;51.040;3.684;2022-12-08T14:22:36;12.90;79.00
36710;DHT22;22694;51.040;3.684;2022-12-08T14:25:03;12.90;79.30
36710;DHT22;22694;51.040;3.684;2022-12-08T14:27:33;12.90;79.50
36710;DHT22;22694;51.040;3.684;2022-12-08T14:30:01;12.90;79.40
36710;DHT22;22694;51.040;3.684;2022-12-08T14:32:32;12.90;79.50
36710;DHT22;22694;51.040;3.684;2022-12-08T14:37:54;12.80;79.50
36710;DHT22;22694;51.040;3.684;2022-12-08T14:40:34;12.80;79.70
36710;DHT22;22694;51.040;3.684;2022-12-08T14:48:23;12.80;79.70
36710;DHT22;22694;51.040;3.684;2022-12-08T14:56:21;12.70;79.80
36710;DHT22;22694;51.040;3.684;2022-12-08T14:59:35;12.70;79.90
36710;DHT22;22694;51.040;3.684;2022-12-08T15:01:36;12.60;79.70
36710;DHT22;22694;51.040;3.684;2022-12-08T15:06:33;12.60;80.40
36710;DHT22;22694;51.040;3.684;2022-12-08T15:09:14;12.60;79.80
36710;DHT22;22694;51.040;3.684;2022-12-08T15:11:40;12.50;79.70
36710;DHT22;22694;51.040;3.684;2022-12-08T15:14:35;12.50;79.80
36710;DHT22;22694;51.040;3.684;2022-12-08T15:17:02;12.50;79.80
36710;DHT22;22694;51.040;3.684;2022-12-08T15:19:31;12.50;79.80
36710;DHT22;22694;51.040;3.684;2022-12-08T15:22:10;12.40;79.70
36710;DHT22;22694;51.040;3.684;2022-12-08T15:24:37;12.40;79.60
36710;DHT22;22694;51.040;3.684;2022-12-08T15:27:03;12.40;79.70
36710;DHT22;22694;51.040;3.684;2022-12-08T15:29:29;12.40;79.70
36710;DHT22;22694;51.040;3.684;2022-12-08T15:31:58;12.40;79.80
36710;DHT22;22694;51.040;3.684;2022-12-08T15:34:24;12.30;79.60
36710;DHT22;22694;51.040;3.684;2022-12-08T15:36:51;12.40;79.90
36710;DHT22;22694;51.040;3.684;2022-12-08T15:39:23;12.40;80.30
36710;DHT22;22694;51.040;3.684;2022-12-08T15:41:50;12.50;81.00
36710;DHT22;22694;51.040;3.684;2022-12-08T15:44:15;12.50;81.90
36710;DHT22;22694;51.040;3.684;2022-12-08T15:46:41;12.60;82.60
36710;DHT22;22694;51.040;3.684;2022-12-08T15:49:17;12.80;91.30
36710;DHT22;22694;51.040;3.684;2022-12-08T15:51:43;13.10;89.90
36710;DHT22;22694;51.040;3.684;2022-12-08T15:54:09;13.30;87.60
36710;DHT22;22694;51.040;3.684;2022-12-08T15:56:41;13.30;85.60
36710;DHT22;22694;51.040;3.684;2022-12-08T15:59:15;13.20;84.40
36710;DHT22;22694;51.040;3.684;2022-12-08T16:01:41;13.20;83.80
36710;DHT22;22694;51.040;3.684;2022-12-08T16:04:08;13.20;83.50
36710;DHT22;22694;51.040;3.684;2022-12-08T16:06:36;13.20;84.10
36710;DHT22;22694;51.040;3.684;2022-12-08T16:09:02;13.30;89.60
36710;DHT22;22694;51.040;3.684;2022-12-08T16:11:27;13.70;88.50
36710;DHT22;22694;51.040;3.684;2022-12-08T16:14:11;13.80;85.90
36710;DHT22;22694;51.040;3.684;2022-12-08T16:16:37;13.80;83.30
36710;DHT22;22694;51.040;3.684;2022-12-08T16:19:03;13.80;84.20
36710;DHT22;22694;51.040;3.684;2022-12-08T16:21:28;13.90;84.80
36710;DHT22;22694;51.040;3.684;2022-12-08T16:23:54;13.80;82.70
36710;DHT22;22694;51.040;3.684;2022-12-08T16:26:21;14.00;86.70
36710;DHT22;22694;51.040;3.684;2022-12-08T16:28:48;14.20;84.70
36710;DHT22;22694;51.040;3.684;2022-12-08T16:31:13;14.20;82.80
36710;DHT22;22694;51.040;3.684;2022-12-08T16:33:40;14.20;81.40
36710;DHT22;22694;51.040;3.684;2022-12-08T16:36:06;14.30;80.40
36710;DHT22;22694;51.040;3.684;2022-12-08T16:38:31;14.30;79.60
36710;DHT22;22694;51.040;3.684;2022-12-08T16:40:57;14.30;79.00
36710;DHT22;22694;51.040;3.684;2022-12-08T16:43:41;14.30;78.60
36710;DHT22;22694;51.040;3.684;2022-12-08T16:46:17;14.40;78.20
36710;DHT22;22694;51.040;3.684;2022-12-08T16:48:43;14.50;77.90
36710;DHT22;22694;51.040;3.684;2022-12-08T16:51:17;14.50;77.60
36710;DHT22;22694;51.040;3.684;2022-12-08T16:53:43;14.60;77.10
36710;DHT22;22694;51.040;3.684;2022-12-08T16:56:15;14.60;76.80
36710;DHT22;22694;51.040;3.684;2022-12-08T16:58:42;14.60;76.40
36710;DHT22;22694;51.040;3.684;2022-12-08T17:01:12;14.70;75.90
36710;DHT22;22694;51.040;3.684;2022-12-08T17:03:39;14.80;75.50
36710;DHT22;22694;51.040;3.684;2022-12-08T17:08:34;14.90;74.70
36710;DHT22;22694;51.040;3.684;2022-12-08T17:11:00;15.00;74.40
36710;DHT22;22694;51.040;3.684;2022-12-08T17:13:35;15.00;74.10
36710;DHT22;22694;51.040;3.684;2022-12-08T17:16:02;15.10;73.80
36710;DHT22;22694;51.040;3.684;2022-12-08T17:18:31;15.20;73.50
36710;DHT22;22694;51.040;3.684;2022-12-08T17:20:57;15.30;73.80
36710;DHT22;22694;51.040;3.684;2022-12-08T17:23:22;15.30;72.90
36710;DHT22;22694;51.040;3.684;2022-12-08T17:25:58;15.40;72.60
36710;DHT22;22694;51.040;3.684;2022-12-08T17:28:25;15.40;72.30
36710;DHT22;22694;51.040;3.684;2022-12-08T17:30:51;15.50;72.00
36710;DHT22;22694;51.040;3.684;2022-12-08T17:33:17;15.50;71.70
36710;DHT22;22694;51.040;3.684;2022-12-08T17:35:50;15.60;71.50